Time;durP1;ratioP1;P1;durP2;ratioP2;P2;SDS_P1;SDS_P2;PMS_P1;PMS_P2;Temp;Humidity;BMP_temperature;BMP_pressure;BME280_temperature;BME280_humidity;BME280_pressure;Samples;Min_cycle;Max_cycle;Signal;HPM_P1;HPM_P2
2023/03/24 00:00:42;;;;;;;;;;;11.50;99.90;;;;;;5072231;28;19924;-60
2023/03/24 00:03:07;;;;;;;;;;;11.50;99.90;;;;;;5059213;28;19990;-60
2023/03/24 00:05:33;;;;;;;;;;;11.50;99.90;;;;;;5040743;28;19964;-62
2023/03/24 00:08:01;;;;;;;;;;;11.50;99.90;;;;;;5039435;28;20309;-62
2023/03/24 00:10:29;;;;;;;;;;;11.50;99.90;;;;;;5037862;28;20325;-61
2023/03/24 00:12:57;;;;;;;;;;;11.50;99.90;;;;;;5043157;28;20029;-62
2023/03/24 00:15:23;;;;;;;;;;;11.50;99.90;;;;;;5052422;28;19923;-62
2023/03/24 00:17:49;;;;;;;;;;;11.50;99.90;;;;;;5050127;28;19928;-62
2023/03/24 00:20:15;;;;;;;;;;;11.50;99.90;;;;;;5052141;28;20011;-62
2023/03/24 00:22:42;;;;;;;;;;;11.50;99.90;;;;;;5053398;28;19999;-62
2023/03/24 00:25:09;;;;;;;;;;;11.50;99.90;;;;;;5032582;28;19921;-62
2023/03/24 00:27:37;;;;;;;;;;;11.40;99.90;;;;;;5031831;28;19971;-62
2023/03/24 00:30:04;;;;;;;;;;;11.40;99.90;;;;;;5032816;28;19917;-62
2023/03/24 00:32:30;;;;;;;;;;;11.40;99.90;;;;;;5032451;28;20419;-62
2023/03/24 00:34:55;;;;;;;;;;;11.40;99.90;;;;;;5032310;28;20008;-62
2023/03/24 00:37:22;;;;;;;;;;;11.40;99.90;;;;;;5032279;28;20008;-62
2023/03/24 00:39:48;;;;;;;;;;;11.40;99.90;;;;;;5032830;28;19999;-62
2023/03/24 00:42:14;;;;;;;;;;;11.40;99.90;;;;;;5052445;28;19920;-62
2023/03/24 00:44:39;;;;;;;;;;;11.40;99.90;;;;;;5051639;28;20352;-62
2023/03/24 00:47:05;;;;;;;;;;;11.40;99.90;;;;;;5051596;28;20366;-63
2023/03/24 00:49:46;;;;;;;;;;;11.40;99.90;;;;;;5050686;28;19963;-62
2023/03/24 00:52:12;;;;;;;;;;;11.40;99.90;;;;;;5052145;28;19917;-62
2023/03/24 00:54:38;;;;;;;;;;;11.40;99.90;;;;;;5042239;28;20271;-62
2023/03/24 00:57:05;;;;;;;;;;;11.40;99.90;;;;;;5031594;28;20377;-62
2023/03/24 00:59:30;;;;;;;;;;;11.40;99.90;;;;;;5042196;28;20015;-62
2023/03/24 01:01:56;;;;;;;;;;;11.40;99.90;;;;;;5058435;28;20019;-62
2023/03/24 01:04:25;;;;;;;;;;;11.40;99.90;;;;;;5044391;28;19963;-62
2023/03/24 01:06:51;;;;;;;;;;;11.40;99.90;;;;;;5032896;28;19952;-62
2023/03/24 01:09:16;;;;;;;;;;;11.50;99.90;;;;;;5046054;28;19924;-62
2023/03/24 01:11:42;;;;;;;;;;;11.50;99.90;;;;;;5046122;28;19943;-62
2023/03/24 01:14:09;;;;;;;;;;;11.50;99.90;;;;;;5047705;28;19983;-62
2023/03/24 01:16:34;;;;;;;;;;;11.50;99.90;;;;;;5044500;28;19963;-62
2023/03/24 01:19:00;;;;;;;;;;;11.50;99.90;;;;;;5031082;28;20390;-62
2023/03/24 01:21:25;;;;;;;;;;;11.50;99.90;;;;;;5031716;28;19924;-62
2023/03/24 01:23:51;;;;;;;;;;;11.50;99.90;;;;;;5031658;28;20313;-62
2023/03/24 01:26:17;;;;;;;;;;;11.60;99.90;;;;;;5032322;28;19921;-62
2023/03/24 01:28:42;;;;;;;;;;;11.60;99.90;;;;;;5055933;28;19923;-62
2023/03/24 01:31:08;;;;;;;;;;;11.60;99.90;;;;;;5069222;28;19923;-62
2023/03/24 01:33:35;;;;;;;;;;;11.60;99.90;;;;;;5031333;28;19928;-62
2023/03/24 01:36:00;;;;;;;;;;;11.60;99.90;;;;;;5031515;28;19932;-62
2023/03/24 01:38:26;;;;;;;;;;;11.60;99.90;;;;;;5030459;28;19936;-62
2023/03/24 01:40:52;;;;;;;;;;;11.60;99.90;;;;;;5030509;28;19967;-61
2023/03/24 01:43:19;;;;;;;;;;;11.60;99.90;;;;;;5031119;28;20298;-62
2023/03/24 01:45:57;;;;;;;;;;;11.60;99.90;;;;;;5031084;28;20437;-62
2023/03/24 01:48:29;;;;;;;;;;;11.60;99.90;;;;;;5029964;28;20352;-62
2023/03/24 01:50:56;;;;;;;;;;;11.60;99.90;;;;;;5030758;28;20306;-62
2023/03/24 01:53:22;;;;;;;;;;;11.60;99.90;;;;;;5030487;28;19924;-62
2023/03/24 01:55:48;;;;;;;;;;;11.60;99.90;;;;;;5031138;28;19916;-62
2023/03/24 01:58:13;;;;;;;;;;;11.70;99.90;;;;;;5029395;28;19952;-62
2023/03/24 02:00:40;;;;;;;;;;;11.70;99.90;;;;;;5031505;28;20026;-62
2023/03/24 02:03:08;;;;;;;;;;;11.70;99.90;;;;;;5030738;28;20349;-62
2023/03/24 02:05:35;;;;;;;;;;;11.70;99.90;;;;;;5061267;28;19916;-62
2023/03/24 02:08:07;;;;;;;;;;;11.70;99.90;;;;;;5069927;28;19947;-62
2023/03/24 02:10:34;;;;;;;;;;;11.70;99.90;;;;;;5033515;28;19916;-62
2023/03/24 02:13:00;;;;;;;;;;;11.70;99.90;;;;;;5032662;28;19921;-62
2023/03/24 02:15:28;;;;;;;;;;;11.70;99.90;;;;;;5040613;28;19917;-62
2023/03/24 02:18:06;;;;;;;;;;;11.70;99.90;;;;;;5038448;28;20263;-62
2023/03/24 02:20:31;;;;;;;;;;;11.70;99.90;;;;;;5048806;28;19978;-62
2023/03/24 02:23:16;;;;;;;;;;;11.80;99.90;;;;;;5056199;28;19920;-62
2023/03/24 02:26:00;;;;;;;;;;;11.80;99.90;;;;;;5034650;28;19917;-62
2023/03/24 02:28:28;;;;;;;;;;;11.80;99.90;;;;;;5029667;28;20054;-62
2023/03/24 02:30:56;;;;;;;;;;;11.80;99.90;;;;;;5031678;28;20016;-62
2023/03/24 02:33:25;;;;;;;;;;;11.90;99.90;;;;;;5049992;28;19925;-62
2023/03/24 02:36:09;;;;;;;;;;;11.80;99.90;;;;;;5061816;28;20339;-62
2023/03/24 02:38:34;;;;;;;;;;;11.90;99.90;;;;;;5069683;28;19974;-62
2023/03/24 02:41:06;;;;;;;;;;;11.90;99.90;;;;;;5033822;28;20378;-62
2023/03/24 02:43:34;;;;;;;;;;;11.90;99.90;;;;;;5029982;28;19955;-62
2023/03/24 02:46:15;;;;;;;;;;;11.90;99.90;;;;;;5047397;28;19921;-62
2023/03/24 02:48:50;;;;;;;;;;;11.90;99.90;;;;;;5049359;28;19916;-62
2023/03/24 02:51:19;;;;;;;;;;;11.90;99.90;;;;;;5049550;28;19924;-62
2023/03/24 02:53:53;;;;;;;;;;;11.90;99.90;;;;;;5049274;28;20279;-61
2023/03/24 02:56:34;;;;;;;;;;;11.90;99.90;;;;;;5049792;28;19928;-62
2023/03/24 02:59:09;;;;;;;;;;;11.90;99.90;;;;;;5047286;28;19924;-62
2023/03/24 03:01:39;;;;;;;;;;;11.90;99.90;;;;;;5050121;28;20306;-62
2023/03/24 03:04:11;;;;;;;;;;;11.90;99.90;;;;;;5049435;28;19938;-63
2023/03/24 03:06:41;;;;;;;;;;;11.90;99.90;;;;;;5032158;28;19917;-62
2023/03/24 03:09:10;;;;;;;;;;;11.90;99.90;;;;;;5049590;28;20406;-62
2023/03/24 03:11:37;;;;;;;;;;;12.00;99.90;;;;;;5057191;28;19955;-62
2023/03/24 03:14:08;;;;;;;;;;;12.00;99.90;;;;;;5034102;28;19924;-62
2023/03/24 03:16:38;;;;;;;;;;;12.00;99.90;;;;;;5034097;28;19970;-62
2023/03/24 03:19:09;;;;;;;;;;;12.00;99.90;;;;;;5034014;28;19924;-63
2023/03/24 03:21:38;;;;;;;;;;;12.00;99.90;;;;;;5046540;28;19921;-62
2023/03/24 03:24:08;;;;;;;;;;;12.00;99.90;;;;;;5043044;28;19916;-62
2023/03/24 03:26:33;;;;;;;;;;;12.00;99.90;;;;;;5064886;28;19924;-62
2023/03/24 03:29:03;;;;;;;;;;;12.00;99.90;;;;;;5039047;28;19916;-62
2023/03/24 03:31:40;;;;;;;;;;;12.00;99.90;;;;;;5041525;28;19921;-62
2023/03/24 03:34:15;;;;;;;;;;;12.00;99.90;;;;;;5033464;28;20207;-62
2023/03/24 03:36:45;;;;;;;;;;;12.00;99.90;;;;;;5032737;28;19917;-62
2023/03/24 03:39:14;;;;;;;;;;;12.00;99.90;;;;;;5032101;28;19917;-62
2023/03/24 03:41:40;;;;;;;;;;;12.00;99.90;;;;;;5031719;28;19962;-62
2023/03/24 03:44:06;;;;;;;;;;;12.00;99.90;;;;;;5073499;28;19991;-62
2023/03/24 03:46:33;;;;;;;;;;;12.00;99.90;;;;;;5042634;28;19917;-62
2023/03/24 03:48:59;;;;;;;;;;;12.00;99.90;;;;;;5031530;28;19917;-62
2023/03/24 03:51:25;;;;;;;;;;;12.00;99.90;;;;;;5033927;28;20425;-62
2023/03/24 03:53:58;;;;;;;;;;;12.00;99.90;;;;;;5033284;28;20302;-62
2023/03/24 03:56:25;;;;;;;;;;;12.00;99.90;;;;;;5032552;28;19967;-62
2023/03/24 03:58:52;;;;;;;;;;;12.00;99.90;;;;;;5030921;28;19917;-62
2023/03/24 04:01:20;;;;;;;;;;;12.00;99.90;;;;;;5031205;28;19921;-62
2023/03/24 04:04:24;;;;;;;;;;;12.00;99.90;;;;;;5033059;28;20307;-62
2023/03/24 04:07:11;;;;;;;;;;;12.00;99.90;;;;;;4990502;28;19921;-62
2023/03/24 04:09:48;;;;;;;;;;;12.10;99.90;;;;;;5002878;28;19924;-62
2023/03/24 04:12:21;;;;;;;;;;;12.10;99.90;;;;;;5034637;28;20382;-62
2023/03/24 04:14:50;;;;;;;;;;;12.00;99.90;;;;;;5052862;28;20003;-63
2023/03/24 04:17:34;;;;;;;;;;;12.00;99.90;;;;;;5052000;28;20290;-62
2023/03/24 04:20:26;;;;;;;;;;;12.00;99.90;;;;;;5032505;28;20294;-62
2023/03/24 04:23:08;;;;;;;;;;;11.90;99.90;;;;;;4990052;28;20000;-62
2023/03/24 04:25:39;;;;;;;;;;;11.80;99.90;;;;;;4990348;28;20016;-62
2023/03/24 04:28:25;;;;;;;;;;;11.70;99.90;;;;;;4989550;28;20201;-62
2023/03/24 04:31:17;;;;;;;;;;;11.60;99.90;;;;;;4984806;28;19926;-62
2023/03/24 04:33:49;;;;;;;;;;;11.50;99.90;;;;;;4991253;28;20296;-62
2023/03/24 04:36:21;;;;;;;;;;;11.40;99.90;;;;;;4990594;28;19918;-62
2023/03/24 04:38:52;;;;;;;;;;;11.20;99.90;;;;;;4999863;28;19926;-62
2023/03/24 04:41:19;;;;;;;;;;;11.20;99.90;;;;;;4989951;28;19922;-62
2023/03/24 04:43:46;;;;;;;;;;;11.00;99.90;;;;;;4990297;28;19922;-62
2023/03/24 04:46:16;;;;;;;;;;;11.00;99.90;;;;;;4973796;28;19960;-61
2023/03/24 04:48:43;;;;;;;;;;;10.90;99.90;;;;;;4989513;28;19971;-62
2023/03/24 04:51:09;;;;;;;;;;;10.90;99.90;;;;;;5002556;28;20276;-62
2023/03/24 04:53:35;;;;;;;;;;;10.80;99.90;;;;;;4990358;28;19918;-62
2023/03/24 04:56:12;;;;;;;;;;;10.80;99.90;;;;;;4990070;28;20433;-62
2023/03/24 04:58:37;;;;;;;;;;;10.80;99.90;;;;;;4993212;28;19917;-62
2023/03/24 05:01:04;;;;;;;;;;;10.80;99.90;;;;;;5049700;28;20330;-61
2023/03/24 05:03:30;;;;;;;;;;;10.70;99.90;;;;;;5052351;28;20007;-62
2023/03/24 05:05:56;;;;;;;;;;;10.70;99.90;;;;;;5051685;28;20390;-62
2023/03/24 05:08:21;;;;;;;;;;;10.60;99.90;;;;;;5051358;28;19917;-62
2023/03/24 05:10:47;;;;;;;;;;;10.60;99.90;;;;;;5051292;28;19939;-62
2023/03/24 05:13:13;;;;;;;;;;;10.60;99.90;;;;;;5051306;28;19917;-62
2023/03/24 05:15:39;;;;;;;;;;;10.50;99.90;;;;;;5051449;28;19955;-62
2023/03/24 05:18:05;;;;;;;;;;;10.50;99.90;;;;;;5050503;28;19920;-62
2023/03/24 05:20:30;;;;;;;;;;;10.50;99.90;;;;;;5051112;28;19916;-62
2023/03/24 05:22:56;;;;;;;;;;;10.50;99.90;;;;;;5062100;28;19970;-62
2023/03/24 05:25:22;;;;;;;;;;;10.50;99.90;;;;;;5071582;28;19946;-62
2023/03/24 05:27:47;;;;;;;;;;;10.50;99.90;;;;;;5052027;28;19920;-62
2023/03/24 05:30:13;;;;;;;;;;;10.50;99.90;;;;;;5051116;28;19943;-62
2023/03/24 05:32:39;;;;;;;;;;;10.40;99.90;;;;;;5050773;28;20284;-62
2023/03/24 05:35:05;;;;;;;;;;;10.40;99.90;;;;;;5051643;28;19917;-62
2023/03/24 05:37:30;;;;;;;;;;;10.40;99.90;;;;;;5036771;28;19971;-62
2023/03/24 05:39:56;;;;;;;;;;;10.30;99.90;;;;;;5030265;28;19921;-62
2023/03/24 05:42:21;;;;;;;;;;;10.30;99.90;;;;;;5030549;28;19928;-62
2023/03/24 05:44:47;;;;;;;;;;;10.30;99.90;;;;;;5031466;28;19921;-62
2023/03/24 05:47:14;;;;;;;;;;;10.30;99.90;;;;;;5030666;28;20313;-62
2023/03/24 05:49:43;;;;;;;;;;;10.30;99.90;;;;;;5030588;28;19975;-62
2023/03/24 05:52:09;;;;;;;;;;;10.30;99.90;;;;;;5013108;28;19917;-62
2023/03/24 05:54:35;;;;;;;;;;;10.30;99.90;;;;;;5030812;28;19917;-62
2023/03/24 05:57:00;;;;;;;;;;;10.40;99.90;;;;;;5014217;28;19932;-61
2023/03/24 05:59:26;;;;;;;;;;;10.30;99.90;;;;;;5029664;28;19939;-62
2023/03/24 06:01:58;;;;;;;;;;;10.30;99.90;;;;;;5031136;28;19920;-62
2023/03/24 06:04:23;;;;;;;;;;;10.30;99.90;;;;;;5042581;28;19928;-62
2023/03/24 06:06:49;;;;;;;;;;;10.20;99.90;;;;;;5050760;28;19921;-62
2023/03/24 06:09:18;;;;;;;;;;;10.20;99.90;;;;;;5048356;28;19923;-62
2023/03/24 06:11:43;;;;;;;;;;;10.20;99.90;;;;;;5050292;28;19916;-62
2023/03/24 06:14:09;;;;;;;;;;;10.30;99.90;;;;;;5050299;28;19917;-62
2023/03/24 06:16:37;;;;;;;;;;;10.40;99.90;;;;;;5050655;28;20309;-62
2023/03/24 06:19:05;;;;;;;;;;;10.50;99.90;;;;;;5048634;28;19920;-62
2023/03/24 06:21:31;;;;;;;;;;;10.50;99.90;;;;;;5050566;28;19920;-62
2023/03/24 06:23:57;;;;;;;;;;;10.50;99.90;;;;;;5045523;28;20282;-62
2023/03/24 06:26:22;;;;;;;;;;;10.40;99.90;;;;;;5042269;28;19974;-62
2023/03/24 06:28:50;;;;;;;;;;;10.40;99.90;;;;;;5051433;28;19984;-62
2023/03/24 06:31:18;;;;;;;;;;;10.40;99.90;;;;;;5030028;28;19976;-61
2023/03/24 06:33:45;;;;;;;;;;;10.50;99.90;;;;;;5030401;28;19917;-62
2023/03/24 06:36:11;;;;;;;;;;;10.50;99.90;;;;;;5046728;28;19916;-62
2023/03/24 06:38:37;;;;;;;;;;;10.50;99.90;;;;;;5046122;28;19966;-62
2023/03/24 06:41:03;;;;;;;;;;;10.50;99.90;;;;;;5034546;28;20346;-62
2023/03/24 06:43:29;;;;;;;;;;;10.50;99.90;;;;;;5032822;28;20371;-61
2023/03/24 06:45:55;;;;;;;;;;;10.50;99.90;;;;;;5057251;28;19927;-62
2023/03/24 06:48:20;;;;;;;;;;;10.50;99.90;;;;;;5069522;28;19924;-62
2023/03/24 06:50:46;;;;;;;;;;;10.50;99.90;;;;;;5064092;28;19982;-62
2023/03/24 06:53:11;;;;;;;;;;;10.50;99.90;;;;;;5064746;28;19970;-62
2023/03/24 06:55:37;;;;;;;;;;;10.50;99.90;;;;;;5030209;28;19948;-62
2023/03/24 06:58:03;;;;;;;;;;;10.50;99.90;;;;;;5029029;28;19917;-62
2023/03/24 07:00:28;;;;;;;;;;;10.50;99.90;;;;;;5030084;28;19975;-62
2023/03/24 07:02:54;;;;;;;;;;;10.50;99.90;;;;;;5059252;28;19920;-62
2023/03/24 07:05:21;;;;;;;;;;;10.60;99.90;;;;;;5036017;28;20335;-62
2023/03/24 07:07:46;;;;;;;;;;;10.60;99.90;;;;;;5027743;28;19927;-62
2023/03/24 07:10:12;;;;;;;;;;;10.60;99.90;;;;;;5027939;28;20008;-62
2023/03/24 07:12:39;;;;;;;;;;;10.70;99.90;;;;;;5030206;28;20298;-62
2023/03/24 07:15:06;;;;;;;;;;;10.70;99.90;;;;;;5038783;28;20289;-62
2023/03/24 07:17:31;;;;;;;;;;;10.70;99.90;;;;;;5047664;28;19917;-62
2023/03/24 07:19:57;;;;;;;;;;;10.70;99.90;;;;;;5044381;28;20255;-62
2023/03/24 07:22:22;;;;;;;;;;;10.70;99.90;;;;;;5037806;28;20370;-62
2023/03/24 07:24:48;;;;;;;;;;;10.70;99.90;;;;;;5042355;28;19924;-62
2023/03/24 07:27:13;;;;;;;;;;;10.70;99.90;;;;;;5029079;28;19921;-62
2023/03/24 07:29:39;;;;;;;;;;;10.70;99.90;;;;;;5038139;28;19927;-61
2023/03/24 07:32:06;;;;;;;;;;;10.60;99.90;;;;;;5049598;28;19916;-62
2023/03/24 07:34:32;;;;;;;;;;;10.70;99.90;;;;;;5049657;28;19917;-62
2023/03/24 07:36:58;;;;;;;;;;;10.70;99.90;;;;;;5039660;28;20006;-62
2023/03/24 07:39:24;;;;;;;;;;;10.70;99.90;;;;;;5036585;28;19972;-62
2023/03/24 07:41:49;;;;;;;;;;;10.70;99.90;;;;;;5042468;28;19920;-62
2023/03/24 07:44:15;;;;;;;;;;;10.70;99.90;;;;;;5047380;28;19931;-62
2023/03/24 07:46:40;;;;;;;;;;;10.70;99.90;;;;;;5034161;28;19917;-62
2023/03/24 07:49:06;;;;;;;;;;;10.70;99.90;;;;;;5047517;28;20324;-62
2023/03/24 07:51:32;;;;;;;;;;;10.70;99.90;;;;;;5026145;28;20387;-62
2023/03/24 07:53:57;;;;;;;;;;;10.80;99.90;;;;;;5029475;28;19921;-62
2023/03/24 07:56:23;;;;;;;;;;;10.70;99.90;;;;;;5030128;28;20465;-62
2023/03/24 07:58:48;;;;;;;;;;;10.70;99.90;;;;;;5071260;28;19978;-62
2023/03/24 08:01:14;;;;;;;;;;;10.80;99.90;;;;;;5055129;28;20374;-62
2023/03/24 08:03:40;;;;;;;;;;;10.90;99.90;;;;;;5067908;28;19923;-62
2023/03/24 08:06:09;;;;;;;;;;;10.90;99.90;;;;;;5052900;28;19956;-62
2023/03/24 08:08:35;;;;;;;;;;;11.00;99.90;;;;;;5051958;28;19947;-62
2023/03/24 08:11:01;;;;;;;;;;;11.00;99.90;;;;;;5051971;28;20425;-62
2023/03/24 08:13:27;;;;;;;;;;;11.10;99.90;;;;;;5050713;28;19917;-62
2023/03/24 08:15:53;;;;;;;;;;;11.10;99.90;;;;;;5046765;28;19943;-62
2023/03/24 08:18:20;;;;;;;;;;;11.10;99.90;;;;;;5051923;28;19924;-62
2023/03/24 08:20:46;;;;;;;;;;;11.10;99.90;;;;;;5039551;28;20247;-62
2023/03/24 08:23:11;;;;;;;;;;;11.10;99.90;;;;;;5050961;28;19929;-62
2023/03/24 08:25:37;;;;;;;;;;;11.10;99.90;;;;;;5050464;28;20330;-62
2023/03/24 08:28:03;;;;;;;;;;;11.10;99.90;;;;;;5051444;28;19928;-62
2023/03/24 08:30:29;;;;;;;;;;;11.20;99.90;;;;;;5050619;28;19995;-61
2023/03/24 08:32:56;;;;;;;;;;;11.30;99.90;;;;;;5015671;28;19917;-62
2023/03/24 08:35:25;;;;;;;;;;;11.40;99.90;;;;;;5033477;28;20462;-62
2023/03/24 08:37:50;;;;;;;;;;;11.50;99.90;;;;;;5016329;28;19917;-62
2023/03/24 08:40:19;;;;;;;;;;;11.60;99.90;;;;;;5046693;28;19944;-62
2023/03/24 08:42:56;;;;;;;;;;;11.70;99.90;;;;;;5033436;28;19925;-62
2023/03/24 08:45:22;;;;;;;;;;;11.70;99.90;;;;;;5040398;28;19921;-62
2023/03/24 08:47:49;;;;;;;;;;;11.90;99.90;;;;;;5042522;28;19920;-62
2023/03/24 08:50:14;;;;;;;;;;;12.10;99.90;;;;;;5039221;28;19917;-62
2023/03/24 08:52:40;;;;;;;;;;;12.20;99.90;;;;;;5036368;28;20351;-62
2023/03/24 08:55:08;;;;;;;;;;;12.30;99.90;;;;;;5041817;28;20054;-61
2023/03/24 08:57:33;;;;;;;;;;;12.40;99.90;;;;;;5042143;28;19920;-60
2023/03/24 08:59:59;;;;;;;;;;;12.60;99.90;;;;;;5051185;28;20359;-61
2023/03/24 09:02:25;;;;;;;;;;;12.70;99.90;;;;;;5043368;28;19921;-61
2023/03/24 09:04:53;;;;;;;;;;;12.70;99.90;;;;;;5051297;28;19924;-61
2023/03/24 09:07:19;;;;;;;;;;;12.80;99.90;;;;;;5039588;28;20408;-61
2023/03/24 09:09:44;;;;;;;;;;;12.80;99.90;;;;;;5041891;28;19927;-61
2023/03/24 09:12:10;;;;;;;;;;;12.80;99.90;;;;;;5055864;28;20003;-60
2023/03/24 09:14:35;;;;;;;;;;;12.70;99.90;;;;;;5049204;28;19928;-62
2023/03/24 09:17:01;;;;;;;;;;;12.70;99.90;;;;;;5031864;28;19921;-61
2023/03/24 09:19:26;;;;;;;;;;;12.50;99.90;;;;;;5030084;28;19978;-61
2023/03/24 09:21:52;;;;;;;;;;;12.50;99.90;;;;;;5031152;28;19970;-61
2023/03/24 09:24:17;;;;;;;;;;;12.40;99.90;;;;;;5034144;28;19916;-61
2023/03/24 09:26:43;;;;;;;;;;;12.40;99.90;;;;;;5041116;28;20385;-60
2023/03/24 09:29:08;;;;;;;;;;;12.30;99.90;;;;;;5030152;28;19924;-61
2023/03/24 09:31:34;;;;;;;;;;;12.20;99.90;;;;;;5046282;28;19921;-62
2023/03/24 09:34:00;;;;;;;;;;;12.10;99.90;;;;;;5041046;28;19924;-62
2023/03/24 09:36:25;;;;;;;;;;;12.00;99.90;;;;;;5043930;28;19916;-62
2023/03/24 09:38:51;;;;;;;;;;;11.90;99.90;;;;;;5026317;28;19975;-62
2023/03/24 09:41:23;;;;;;;;;;;11.90;99.90;;;;;;5036764;28;19928;-63
2023/03/24 09:43:53;;;;;;;;;;;12.00;99.90;;;;;;5032864;28;19925;-62
2023/03/24 09:46:36;;;;;;;;;;;12.00;99.90;;;;;;5044503;28;19924;-62
2023/03/24 09:49:02;;;;;;;;;;;12.00;99.90;;;;;;5069520;28;20377;-62
2023/03/24 09:51:29;;;;;;;;;;;12.10;99.90;;;;;;5047395;28;19947;-62
2023/03/24 09:54:08;;;;;;;;;;;12.30;99.90;;;;;;5044757;28;20435;-62
2023/03/24 09:56:35;;;;;;;;;;;12.30;99.90;;;;;;5048411;28;19952;-62
2023/03/24 09:59:03;;;;;;;;;;;12.30;99.90;;;;;;5049257;28;20003;-62
2023/03/24 10:01:28;;;;;;;;;;;12.30;99.90;;;;;;5045035;28;19921;-62
2023/03/24 10:03:58;;;;;;;;;;;12.40;99.90;;;;;;5049142;28;19923;-62
2023/03/24 10:06:29;;;;;;;;;;;12.60;99.90;;;;;;5050376;28;19920;-61
2023/03/24 10:09:13;;;;;;;;;;;12.70;99.90;;;;;;5048812;28;20379;-61
2023/03/24 10:11:46;;;;;;;;;;;12.70;99.90;;;;;;5048835;28;19917;-61
2023/03/24 10:14:11;;;;;;;;;;;12.80;99.90;;;;;;5048318;28;19978;-61
2023/03/24 10:16:51;;;;;;;;;;;12.90;99.90;;;;;;5048172;28;19925;-61
2023/03/24 10:19:20;;;;;;;;;;;13.00;99.90;;;;;;5046380;28;19943;-62
2023/03/24 10:21:58;;;;;;;;;;;13.00;99.90;;;;;;5045839;28;20386;-61
2023/03/24 10:24:28;;;;;;;;;;;13.10;99.90;;;;;;5046076;28;19971;-61
2023/03/24 10:27:14;;;;;;;;;;;13.00;99.90;;;;;;5045724;28;20493;-62
2023/03/24 10:29:40;;;;;;;;;;;13.10;99.90;;;;;;5030894;28;19916;-62
2023/03/24 10:32:09;;;;;;;;;;;13.00;99.90;;;;;;5030113;28;19924;-62
2023/03/24 10:34:36;;;;;;;;;;;12.90;99.90;;;;;;5048663;28;19921;-62
2023/03/24 10:37:02;;;;;;;;;;;12.80;99.90;;;;;;5042003;28;20457;-61
2023/03/24 10:39:28;;;;;;;;;;;12.70;99.90;;;;;;5043886;28;20385;-61
2023/03/24 10:41:53;;;;;;;;;;;12.70;99.90;;;;;;5045929;28;19921;-62
2023/03/24 10:44:20;;;;;;;;;;;12.90;99.90;;;;;;5044972;28;19922;-62
2023/03/24 10:46:47;;;;;;;;;;;13.00;99.90;;;;;;5045781;28;20420;-62
2023/03/24 10:49:14;;;;;;;;;;;13.00;99.90;;;;;;5020382;28;19920;-62
2023/03/24 10:51:43;;;;;;;;;;;13.20;99.90;;;;;;5044892;28;19931;-62
2023/03/24 10:54:15;;;;;;;;;;;13.40;99.90;;;;;;5039154;28;19958;-62
2023/03/24 10:56:42;;;;;;;;;;;13.50;99.90;;;;;;5039967;28;19927;-61
2023/03/24 10:59:17;;;;;;;;;;;13.50;99.90;;;;;;5038078;28;19951;-61
2023/03/24 11:01:43;;;;;;;;;;;13.60;99.90;;;;;;5035755;28;20333;-61
2023/03/24 11:04:10;;;;;;;;;;;13.50;99.90;;;;;;5040627;28;20118;-62
2023/03/24 11:06:36;;;;;;;;;;;13.30;99.90;;;;;;5047761;28;19917;-62
2023/03/24 11:09:18;;;;;;;;;;;13.30;99.90;;;;;;5028545;28;20400;-62
2023/03/24 11:11:44;;;;;;;;;;;13.40;99.90;;;;;;5044724;28;19960;-62
2023/03/24 11:14:21;;;;;;;;;;;13.50;99.90;;;;;;5041972;28;19959;-62
2023/03/24 11:16:47;;;;;;;;;;;13.70;99.90;;;;;;5046015;28;19920;-62
2023/03/24 11:19:22;;;;;;;;;;;13.70;99.90;;;;;;5046477;28;19916;-62
2023/03/24 11:21:49;;;;;;;;;;;13.60;99.90;;;;;;5046638;28;19971;-63
2023/03/24 11:24:16;;;;;;;;;;;13.50;99.90;;;;;;5045065;28;19921;-62
2023/03/24 11:26:45;;;;;;;;;;;13.50;99.90;;;;;;5047015;28;20366;-62
2023/03/24 11:29:14;;;;;;;;;;;13.50;99.90;;;;;;5043645;28;19920;-62
2023/03/24 11:31:40;;;;;;;;;;;13.60;99.90;;;;;;5050957;28;19928;-62
2023/03/24 11:34:06;;;;;;;;;;;13.70;99.90;;;;;;5051757;28;19916;-62
2023/03/24 11:36:31;;;;;;;;;;;13.70;99.90;;;;;;5051895;28;19927;-62
2023/03/24 11:39:02;;;;;;;;;;;13.80;99.90;;;;;;5050558;28;20015;-62
2023/03/24 11:41:28;;;;;;;;;;;13.90;99.90;;;;;;5049749;28;20408;-62
2023/03/24 11:44:12;;;;;;;;;;;13.90;99.90;;;;;;5051073;28;20294;-62
2023/03/24 11:46:39;;;;;;;;;;;13.80;99.90;;;;;;5051708;28;19951;-62
2023/03/24 11:49:05;;;;;;;;;;;13.70;99.90;;;;;;5050261;28;20297;-62
2023/03/24 11:51:36;;;;;;;;;;;13.60;99.90;;;;;;5031558;28;19971;-62
2023/03/24 11:54:08;;;;;;;;;;;13.50;99.90;;;;;;5048969;28;20271;-62
2023/03/24 11:56:39;;;;;;;;;;;13.70;99.90;;;;;;5050257;28;19975;-62
2023/03/24 11:59:23;;;;;;;;;;;14.00;99.90;;;;;;5050050;28;19963;-62
2023/03/24 12:02:07;;;;;;;;;;;14.20;99.90;;;;;;5044592;28;19921;-62
2023/03/24 12:04:38;;;;;;;;;;;14.30;99.90;;;;;;5050714;28;19927;-62
2023/03/24 12:07:06;;;;;;;;;;;14.20;99.90;;;;;;5048849;28;20271;-62
2023/03/24 12:09:32;;;;;;;;;;;14.10;99.90;;;;;;5049199;28;20290;-62
2023/03/24 12:12:09;;;;;;;;;;;14.00;99.90;;;;;;5049977;28;19928;-62
2023/03/24 12:14:53;;;;;;;;;;;14.00;99.90;;;;;;5051022;28;19920;-62
2023/03/24 12:17:38;;;;;;;;;;;14.00;99.90;;;;;;5049161;28;20018;-62
2023/03/24 12:20:07;;;;;;;;;;;14.00;99.90;;;;;;5050004;28;19917;-62
2023/03/24 12:22:47;;;;;;;;;;;13.90;99.90;;;;;;5050773;28;19927;-62
2023/03/24 12:25:38;;;;;;;;;;;13.80;99.90;;;;;;5049306;28;19942;-62
2023/03/24 12:28:09;;;;;;;;;;;13.60;99.90;;;;;;5047436;28;19959;-63
2023/03/24 12:30:40;;;;;;;;;;;13.60;99.90;;;;;;5047985;28;20011;-62
2023/03/24 12:33:24;;;;;;;;;;;13.80;99.90;;;;;;5049829;28;19982;-62
2023/03/24 12:35:52;;;;;;;;;;;14.00;99.90;;;;;;5049750;28;20303;-62
2023/03/24 12:38:37;;;;;;;;;;;14.00;99.00;;;;;;5049527;28;20020;-62
2023/03/24 12:41:25;;;;;;;;;;;14.00;98.60;;;;;;5049051;28;20062;-62
2023/03/24 12:44:09;;;;;;;;;;;14.10;99.90;;;;;;5045496;28;20382;-62
2023/03/24 12:46:43;;;;;;;;;;;14.20;99.90;;;;;;5048488;28;19981;-62
2023/03/24 12:49:09;;;;;;;;;;;14.40;99.90;;;;;;5048764;28;19917;-62
2023/03/24 12:51:38;;;;;;;;;;;14.40;99.40;;;;;;5049461;28;19924;-62
2023/03/24 12:54:22;;;;;;;;;;;14.40;99.80;;;;;;5050964;28;19923;-62
2023/03/24 12:56:49;;;;;;;;;;;14.40;99.90;;;;;;5050840;28;20307;-62
2023/03/24 12:59:20;;;;;;;;;;;14.30;99.90;;;;;;5050767;28;20294;-62
2023/03/24 13:01:51;;;;;;;;;;;14.10;99.80;;;;;;5050627;28;20389;-62
2023/03/24 13:04:20;;;;;;;;;;;14.00;99.90;;;;;;5040743;28;20267;-62
2023/03/24 13:07:13;;;;;;;;;;;13.90;99.90;;;;;;5040122;28;19917;-62
2023/03/24 13:09:58;;;;;;;;;;;13.80;99.90;;;;;;5036779;28;19920;-62
2023/03/24 13:12:35;;;;;;;;;;;13.80;99.90;;;;;;5041077;28;19971;-62
2023/03/24 13:15:03;;;;;;;;;;;13.70;99.90;;;;;;5050237;28;20444;-62
2023/03/24 13:17:32;;;;;;;;;;;13.70;99.90;;;;;;5048715;28;20885;-62
2023/03/24 13:19:58;;;;;;;;;;;13.70;99.90;;;;;;5046407;28;20655;-62
2023/03/24 13:22:24;;;;;;;;;;;13.70;99.90;;;;;;5047888;28;20370;-62
2023/03/24 13:24:50;;;;;;;;;;;13.80;99.90;;;;;;5048508;28;19917;-62
2023/03/24 13:27:31;;;;;;;;;;;13.70;99.90;;;;;;5047248;28;19928;-62
2023/03/24 13:30:15;;;;;;;;;;;13.70;99.90;;;;;;5046251;28;20011;-62
2023/03/24 13:32:46;;;;;;;;;;;13.60;99.90;;;;;;5049786;28;19963;-62
2023/03/24 13:35:16;;;;;;;;;;;13.40;99.90;;;;;;5044503;28;20011;-61
2023/03/24 13:37:47;;;;;;;;;;;13.30;99.90;;;;;;5047302;28;20007;-62
2023/03/24 13:40:23;;;;;;;;;;;13.20;99.90;;;;;;5048688;28;19916;-62
2023/03/24 13:42:59;;;;;;;;;;;13.10;99.90;;;;;;5047759;28;19927;-62
2023/03/24 13:45:37;;;;;;;;;;;13.10;99.90;;;;;;5049606;28;19920;-62
2023/03/24 13:48:08;;;;;;;;;;;13.10;99.90;;;;;;5047741;28;19920;-62
2023/03/24 13:50:37;;;;;;;;;;;13.20;99.90;;;;;;5047869;28;20046;-62
2023/03/24 13:53:11;;;;;;;;;;;13.20;99.90;;;;;;5047957;28;19967;-62
2023/03/24 13:55:38;;;;;;;;;;;13.10;99.90;;;;;;5048770;28;19916;-62
2023/03/24 13:58:33;;;;;;;;;;;13.00;99.90;;;;;;5048115;28;19916;-62
2023/03/24 14:01:14;;;;;;;;;;;13.00;99.90;;;;;;5030863;28;19923;-62
2023/03/24 14:03:42;;;;;;;;;;;13.00;99.90;;;;;;5048779;28;19921;-62
2023/03/24 14:06:14;;;;;;;;;;;13.10;99.90;;;;;;5049321;28;19921;-62
2023/03/24 14:08:51;;;;;;;;;;;13.10;99.90;;;;;;5049439;28;19916;-62
2023/03/24 14:11:40;;;;;;;;;;;13.00;99.90;;;;;;5048837;28;20390;-62
2023/03/24 14:14:15;;;;;;;;;;;13.00;99.90;;;;;;5043654;28;19916;-62
2023/03/24 14:16:48;;;;;;;;;;;12.90;99.90;;;;;;5042238;28;19916;-62
2023/03/24 14:19:19;;;;;;;;;;;12.70;99.90;;;;;;5042301;28;20219;-62
2023/03/24 14:21:51;;;;;;;;;;;12.70;99.90;;;;;;5043639;28;20341;-62
2023/03/24 14:24:24;;;;;;;;;;;12.60;99.90;;;;;;5047716;28;19916;-62
2023/03/24 14:26:50;;;;;;;;;;;12.50;99.90;;;;;;5045691;28;19920;-62
2023/03/24 14:29:45;;;;;;;;;;;12.50;99.90;;;;;;5047147;28;19921;-62